Time;durP1;ratioP1;P1;durP2;ratioP2;P2;SDS_P1;SDS_P2;PMS_P1;PMS_P2;Temp;Humidity;BMP_temperature;BMP_pressure;BME280_temperature;BME280_humidity;BME280_pressure;Samples;Min_cycle;Max_cycle;Signal;HPM_P1;HPM_P2
2022/07/21 00:01:06;;;;;;;32.95;14.13;;;;;;;;;;5037718;28;20033;-76
2022/07/21 00:03:32;;;;;;;30.95;14.80;;;;;;;;;;5055956;28;20068;-77
2022/07/21 00:05:58;;;;;;;31.05;14.27;;;;;;;;;;5055490;28;20493;-76
2022/07/21 00:08:24;;;;;;;29.05;13.15;;;;;;;;;;5055835;28;20044;-77
2022/07/21 00:10:50;;;;;;;24.42;13.60;;;;;;;;;;5055458;28;20029;-77
2022/07/21 00:13:16;;;;;;;31.85;13.75;;;;;;;;;;5055248;28;20513;-77
2022/07/21 00:15:42;;;;;;;34.10;14.13;;;;;;;;;;5055322;28;20033;-77
2022/07/21 00:18:08;;;;;;;29.77;14.00;;;;;;;;;;5055484;28;20033;-76
2022/07/21 00:20:34;;;;;;;31.95;13.45;;;;;;;;;;5055214;28;20029;-76
2022/07/21 00:23:00;;;;;;;26.10;13.93;;;;;;;;;;5055464;28;20052;-76
2022/07/21 00:25:26;;;;;;;27.85;13.43;;;;;;;;;;5055441;28;20051;-76
2022/07/21 00:27:52;;;;;;;29.25;12.68;;;;;;;;;;5055926;28;20031;-78
2022/07/21 00:30:18;;;;;;;27.30;13.43;;;;;;;;;;5055219;28;20033;-77
2022/07/21 00:32:44;;;;;;;27.50;14.90;;;;;;;;;;5055012;28;20048;-76
2022/07/21 00:35:11;;;;;;;30.55;14.10;;;;;;;;;;5053801;28;20024;-75
2022/07/21 00:37:37;;;;;;;31.85;13.93;;;;;;;;;;5054794;28;20096;-75
2022/07/21 00:40:04;;;;;;;24.98;13.25;;;;;;;;;;5055550;28;20075;-77
2022/07/21 00:42:31;;;;;;;30.90;14.15;;;;;;;;;;5055377;28;20017;-76
2022/07/21 00:44:57;;;;;;;27.20;14.40;;;;;;;;;;5054856;28;20070;-75
2022/07/21 00:47:24;;;;;;;27.85;13.35;;;;;;;;;;5054767;28;20033;-75
2022/07/21 00:49:51;;;;;;;30.27;14.90;;;;;;;;;;5054883;28;20025;-75
2022/07/21 00:52:17;;;;;;;25.70;13.32;;;;;;;;;;5054953;28;20394;-76
2022/07/21 00:54:44;;;;;;;32.30;14.95;;;;;;;;;;5053506;28;20033;-76
2022/07/21 00:57:11;;;;;;;29.05;14.02;;;;;;;;;;5054367;28;20417;-76
2022/07/21 00:59:37;;;;;;;33.90;14.57;;;;;;;;;;5054297;28;20059;-76
2022/07/21 01:02:03;;;;;;;33.58;14.65;;;;;;;;;;5053850;28;20029;-76
2022/07/21 01:04:29;;;;;;;33.80;15.10;;;;;;;;;;5054005;28;20036;-77
2022/07/21 01:06:55;;;;;;;30.77;13.68;;;;;;;;;;5052862;28;20075;-76
2022/07/21 01:09:21;;;;;;;31.58;15.20;;;;;;;;;;5053537;28;20104;-77
2022/07/21 01:11:48;;;;;;;30.80;13.73;;;;;;;;;;5053614;28;20031;-76
2022/07/21 01:14:14;;;;;;;31.88;14.32;;;;;;;;;;5053681;28;20026;-77
2022/07/21 01:16:41;;;;;;;29.48;14.23;;;;;;;;;;5052839;28;20219;-77
2022/07/21 01:19:07;;;;;;;33.17;14.23;;;;;;;;;;5034956;28;20126;-75
2022/07/21 01:21:37;;;;;;;36.80;14.65;;;;;;;;;;5052992;28;20103;-76
2022/07/21 01:24:04;;;;;;;30.25;14.02;;;;;;;;;;5053198;28;20115;-76
2022/07/21 01:26:30;;;;;;;34.38;13.80;;;;;;;;;;5052659;28;20100;-76
2022/07/21 01:28:57;;;;;;;33.60;14.43;;;;;;;;;;5052693;28;20108;-76
2022/07/21 01:31:23;;;;;;;33.90;14.85;;;;;;;;;;5051508;28;20021;-75
2022/07/21 01:33:50;;;;;;;29.60;14.15;;;;;;;;;;5053405;28;20365;-76
2022/07/21 01:36:16;;;;;;;27.60;14.07;;;;;;;;;;5052453;28;20686;-76
2022/07/21 01:41:30;;;;;;;29.23;13.57;;;;;;;;;;5052348;28;20048;-76
2022/07/21 01:44:00;;;;;;;33.83;14.77;;;;;;;;;;5053898;28;20100;-76
2022/07/21 01:46:26;;;;;;;36.42;15.02;;;;;;;;;;5053633;28;20013;-76
2022/07/21 01:48:52;;;;;;;34.63;14.82;;;;;;;;;;5055570;28;20029;-77
2022/07/21 01:51:18;;;;;;;32.88;14.60;;;;;;;;;;5056129;28;20114;-76
2022/07/21 01:53:44;;;;;;;35.28;14.85;;;;;;;;;;5054484;28;20103;-77
2022/07/21 01:56:10;;;;;;;33.70;14.55;;;;;;;;;;5053595;28;20503;-75
2022/07/21 01:58:36;;;;;;;40.10;14.73;;;;;;;;;;5053720;28;20539;-77
2022/07/21 02:01:02;;;;;;;31.40;14.30;;;;;;;;;;5053725;28;20100;-76
2022/07/21 02:03:28;;;;;;;32.13;15.30;;;;;;;;;;5035912;28;20052;-77
2022/07/21 02:05:53;;;;;;;30.58;14.38;;;;;;;;;;5054001;28;20056;-76
2022/07/21 02:08:19;;;;;;;36.65;14.57;;;;;;;;;;5054184;28;20036;-77
2022/07/21 02:10:45;;;;;;;40.97;16.00;;;;;;;;;;5053492;28;20104;-76
2022/07/21 02:13:11;;;;;;;42.92;16.35;;;;;;;;;;5036716;28;20028;-77
2022/07/21 02:15:37;;;;;;;35.33;14.68;;;;;;;;;;5042394;28;20033;-76
2022/07/21 02:18:03;;;;;;;34.33;15.40;;;;;;;;;;5056328;28;20067;-77
2022/07/21 02:20:29;;;;;;;37.40;14.68;;;;;;;;;;5053636;28;20041;-77
2022/07/21 02:22:55;;;;;;;33.35;15.38;;;;;;;;;;5053367;28;20025;-76
2022/07/21 02:25:21;;;;;;;30.98;15.05;;;;;;;;;;5053345;28;20032;-77
2022/07/21 02:27:47;;;;;;;35.65;15.98;;;;;;;;;;5053292;28;20036;-77
2022/07/21 02:30:14;;;;;;;36.95;15.65;;;;;;;;;;5053211;28;20025;-75
2022/07/21 02:32:40;;;;;;;40.97;16.08;;;;;;;;;;5053020;28;20421;-77
2022/07/21 02:35:06;;;;;;;39.13;16.25;;;;;;;;;;5053189;28;20029;-77
2022/07/21 02:37:32;;;;;;;38.28;16.73;;;;;;;;;;5052639;28;20021;-75
2022/07/21 02:39:58;;;;;;;35.63;16.60;;;;;;;;;;5052521;28;20035;-76
2022/07/21 02:42:24;;;;;;;37.28;17.00;;;;;;;;;;5052809;28;20413;-75
2022/07/21 02:44:50;;;;;;;42.10;17.42;;;;;;;;;;5053062;28;20017;-76
2022/07/21 02:47:16;;;;;;;50.53;19.58;;;;;;;;;;5034725;28;20029;-77
2022/07/21 02:49:42;;;;;;;39.47;16.27;;;;;;;;;;5053118;28;20111;-77
2022/07/21 02:52:08;;;;;;;39.70;17.95;;;;;;;;;;5052934;28;20036;-77
2022/07/21 02:54:34;;;;;;;36.50;17.63;;;;;;;;;;5053300;28;20086;-77
2022/07/21 02:57:00;;;;;;;53.97;20.20;;;;;;;;;;5052761;28;20118;-85
2022/07/21 02:59:25;;;;;;;42.63;19.48;;;;;;;;;;5052199;28;20208;-76
2022/07/21 03:01:51;;;;;;;40.13;18.33;;;;;;;;;;5052364;28;20021;-75
2022/07/21 03:04:17;;;;;;;46.75;19.05;;;;;;;;;;5053210;28;20049;-75
2022/07/21 03:06:43;;;;;;;45.72;19.88;;;;;;;;;;5052255;28;20482;-73
2022/07/21 03:09:10;;;;;;;44.80;19.90;;;;;;;;;;5052283;28;20032;-73
2022/07/21 03:11:36;;;;;;;49.30;19.48;;;;;;;;;;5051973;28;20405;-74
2022/07/21 03:14:02;;;;;;;39.53;18.48;;;;;;;;;;5053963;28;20029;-75
2022/07/21 03:16:28;;;;;;;38.50;17.45;;;;;;;;;;5051868;28;20033;-73
2022/07/21 03:18:54;;;;;;;45.90;18.52;;;;;;;;;;5051912;28;20048;-73
2022/07/21 03:21:20;;;;;;;35.83;17.42;;;;;;;;;;5051573;28;20497;-74
2022/07/21 03:23:45;;;;;;;44.08;16.98;;;;;;;;;;5052199;28;20100;-74
2022/07/21 03:26:12;;;;;;;38.88;16.88;;;;;;;;;;5051858;28;20025;-74
2022/07/21 03:28:39;;;;;;;36.55;16.63;;;;;;;;;;5052192;28;20013;-75
2022/07/21 03:31:05;;;;;;;40.92;16.65;;;;;;;;;;5051870;28;20036;-74
2022/07/21 03:33:31;;;;;;;40.45;17.00;;;;;;;;;;5052159;28;20035;-78
2022/07/21 03:36:00;;;;;;;42.05;16.00;;;;;;;;;;5052431;28;20112;-77
2022/07/21 03:38:26;;;;;;;40.95;14.73;;;;;;;;;;5052244;28;20044;-76
2022/07/21 03:40:52;;;;;;;35.75;14.77;;;;;;;;;;5051880;28;20029;-75
2022/07/21 03:43:18;;;;;;;33.90;14.68;;;;;;;;;;5052210;28;20074;-75
2022/07/21 03:45:44;;;;;;;39.33;13.50;;;;;;;;;;5052255;28;20433;-75
2022/07/21 03:48:11;;;;;;;41.28;14.52;;;;;;;;;;5052426;28;20025;-73
2022/07/21 03:50:38;;;;;;;39.25;13.30;;;;;;;;;;5051850;28;20036;-74
2022/07/21 03:53:04;;;;;;;36.00;12.27;;;;;;;;;;5052135;28;20086;-76
2022/07/21 03:55:30;;;;;;;37.13;11.95;;;;;;;;;;5052130;28;20473;-74
2022/07/21 03:57:58;;;;;;;36.60;11.40;;;;;;;;;;5051759;28;20398;-76
2022/07/21 04:00:26;;;;;;;36.72;11.63;;;;;;;;;;5051638;28;20021;-76
2022/07/21 04:02:53;;;;;;;28.48;10.48;;;;;;;;;;5052010;28;20021;-75
2022/07/21 04:05:20;;;;;;;29.80;10.35;;;;;;;;;;5051755;28;20570;-75
2022/07/21 04:07:47;;;;;;;30.48;10.23;;;;;;;;;;5051930;28;20049;-75
2022/07/21 04:10:14;;;;;;;37.15;10.75;;;;;;;;;;5058223;28;20029;-75
2022/07/21 04:12:40;;;;;;;40.55;12.30;;;;;;;;;;5046890;28;20029;-76
2022/07/21 04:15:06;;;;;;;31.48;10.38;;;;;;;;;;5059439;28;20052;-76
2022/07/21 04:17:32;;;;;;;35.92;9.90;;;;;;;;;;5055272;28;20025;-74
2022/07/21 04:19:58;;;;;;;25.70;9.43;;;;;;;;;;5055473;28;20105;-76
2022/07/21 04:22:24;;;;;;;24.33;8.73;;;;;;;;;;5055554;28;20569;-78
2022/07/21 04:24:50;;;;;;;31.13;8.98;;;;;;;;;;5055554;28;20098;-76
2022/07/21 04:27:16;;;;;;;30.23;8.95;;;;;;;;;;5055760;28;20032;-74
2022/07/21 04:29:42;;;;;;;34.13;9.10;;;;;;;;;;5054897;28;20440;-74
2022/07/21 04:32:08;;;;;;;30.60;8.70;;;;;;;;;;5055413;28;20059;-75
2022/07/21 04:34:34;;;;;;;30.80;9.63;;;;;;;;;;5055162;28;20466;-75
2022/07/21 04:37:00;;;;;;;25.63;7.55;;;;;;;;;;5037116;28;20440;-73
2022/07/21 04:39:27;;;;;;;31.35;8.45;;;;;;;;;;5055058;28;20036;-73
2022/07/21 04:41:53;;;;;;;24.27;7.50;;;;;;;;;;5055398;28;20028;-73
2022/07/21 04:44:19;;;;;;;29.05;8.07;;;;;;;;;;5054748;28;20025;-75
2022/07/21 04:46:45;;;;;;;30.80;8.98;;;;;;;;;;5054654;28;20047;-73
2022/07/21 04:49:11;;;;;;;28.65;8.50;;;;;;;;;;5054975;28;20052;-74
2022/07/21 04:51:37;;;;;;;34.78;9.27;;;;;;;;;;5054893;28;20493;-74
2022/07/21 04:54:04;;;;;;;28.67;8.52;;;;;;;;;;5059716;28;20425;-73
2022/07/21 04:56:30;;;;;;;33.88;7.65;;;;;;;;;;5055759;28;20021;-73
2022/07/21 04:58:56;;;;;;;28.42;7.95;;;;;;;;;;5054568;28;20083;-72
2022/07/21 05:01:22;;;;;;;29.50;7.65;;;;;;;;;;5054132;28;20029;-71
2022/07/21 05:03:48;;;;;;;24.20;7.45;;;;;;;;;;5054451;28;20100;-71
2022/07/21 05:06:14;;;;;;;27.70;7.30;;;;;;;;;;5054412;28;20032;-72
2022/07/21 05:08:40;;;;;;;27.25;7.35;;;;;;;;;;5054549;28;20025;-72
2022/07/21 05:11:06;;;;;;;24.60;7.35;;;;;;;;;;5054553;28;20032;-71
2022/07/21 05:13:32;;;;;;;29.58;7.63;;;;;;;;;;5054643;28;20094;-71
2022/07/21 05:15:58;;;;;;;23.10;7.57;;;;;;;;;;5053672;28;20044;-71
2022/07/21 05:18:24;;;;;;;22.30;7.40;;;;;;;;;;5054498;28;20036;-73
2022/07/21 05:20:50;;;;;;;27.02;8.10;;;;;;;;;;5054239;28;20512;-73
2022/07/21 05:23:16;;;;;;;29.85;8.52;;;;;;;;;;5054598;28;20032;-73
2022/07/21 05:25:42;;;;;;;28.33;7.97;;;;;;;;;;5054734;28;20533;-72
2022/07/21 05:28:08;;;;;;;32.40;8.45;;;;;;;;;;5054935;28;20060;-73
2022/07/21 05:30:35;;;;;;;27.23;8.38;;;;;;;;;;5055000;28;20021;-73
2022/07/21 05:33:01;;;;;;;25.40;7.40;;;;;;;;;;5055129;28;20043;-73
2022/07/21 05:35:27;;;;;;;26.25;7.43;;;;;;;;;;5054404;28;20471;-72
2022/07/21 05:37:53;;;;;;;26.17;8.68;;;;;;;;;;5054505;28;20385;-73
2022/07/21 05:40:19;;;;;;;24.90;7.15;;;;;;;;;;5055062;28;20418;-74
2022/07/21 05:42:45;;;;;;;27.08;7.55;;;;;;;;;;5058206;28;20013;-74
2022/07/21 05:45:11;;;;;;;23.17;7.10;;;;;;;;;;5065486;28;20032;-74
2022/07/21 05:47:37;;;;;;;28.02;7.43;;;;;;;;;;5062082;28;20028;-71
2022/07/21 05:50:03;;;;;;;30.83;7.78;;;;;;;;;;5054369;28;20047;-75
2022/07/21 05:52:29;;;;;;;19.95;6.78;;;;;;;;;;5056433;28;20032;-74
2022/07/21 05:54:55;;;;;;;28.80;7.55;;;;;;;;;;5054100;28;20132;-72
2022/07/21 05:57:21;;;;;;;19.38;6.30;;;;;;;;;;5053664;28;20065;-72
2022/07/21 05:59:47;;;;;;;27.95;7.13;;;;;;;;;;5054834;28;20036;-74
2022/07/21 06:02:13;;;;;;;26.75;6.85;;;;;;;;;;5054089;28;20067;-73
2022/07/21 06:04:39;;;;;;;31.63;8.13;;;;;;;;;;5054655;28;20036;-74
2022/07/21 06:07:06;;;;;;;28.80;7.80;;;;;;;;;;5053798;28;20029;-75
2022/07/21 06:09:32;;;;;;;29.98;7.32;;;;;;;;;;5053257;28;20482;-73
2022/07/21 06:11:58;;;;;;;21.83;7.13;;;;;;;;;;5053495;28;20025;-74
2022/07/21 06:14:23;;;;;;;26.77;8.70;;;;;;;;;;5053419;28;20028;-73
2022/07/21 06:16:50;;;;;;;27.45;8.25;;;;;;;;;;5053492;28;20028;-74
2022/07/21 06:19:16;;;;;;;27.35;8.65;;;;;;;;;;5054045;28;20028;-74
2022/07/21 06:21:42;;;;;;;26.20;8.05;;;;;;;;;;5053474;28;20462;-72
2022/07/21 06:24:08;;;;;;;24.73;7.85;;;;;;;;;;5053118;28;20025;-73
2022/07/21 06:26:35;;;;;;;29.27;7.82;;;;;;;;;;5053883;28;20065;-76
2022/07/21 06:29:01;;;;;;;21.92;7.93;;;;;;;;;;5055177;28;20492;-76
2022/07/21 06:31:27;;;;;;;28.27;7.80;;;;;;;;;;5054337;28;20029;-75
2022/07/21 06:33:53;;;;;;;22.40;8.02;;;;;;;;;;5056192;28;20032;-75
2022/07/21 06:36:19;;;;;;;28.60;9.93;;;;;;;;;;5052886;28;20709;-75
2022/07/21 06:38:45;;;;;;;29.85;11.55;;;;;;;;;;5052877;28;20036;-73
2022/07/21 06:41:11;;;;;;;27.13;8.55;;;;;;;;;;5054346;28;20155;-78
2022/07/21 06:43:37;;;;;;;21.70;7.80;;;;;;;;;;5054960;28;20148;-76
2022/07/21 06:46:03;;;;;;;28.20;8.65;;;;;;;;;;5054286;28;20455;-79
2022/07/21 06:48:29;;;;;;;26.75;8.80;;;;;;;;;;5058673;28;20025;-80
2022/07/21 06:50:56;;;;;;;22.45;8.07;;;;;;;;;;5062135;28;20087;-78
2022/07/21 06:53:22;;;;;;;29.98;7.80;;;;;;;;;;5060083;28;20033;-79
2022/07/21 06:55:52;;;;;;;29.33;8.05;;;;;;;;;;5063208;28;20025;-79
2022/07/21 06:58:18;;;;;;;29.33;10.18;;;;;;;;;;5060747;28;20017;-77
2022/07/21 07:00:45;;;;;;;32.45;9.07;;;;;;;;;;5055924;28;20107;-77
2022/07/21 07:03:11;;;;;;;26.50;8.43;;;;;;;;;;5059738;28;20043;-77
2022/07/21 07:05:37;;;;;;;31.95;9.82;;;;;;;;;;5058751;28;20025;-79
2022/07/21 07:08:03;;;;;;;29.92;9.15;;;;;;;;;;5058034;28;20091;-74
2022/07/21 07:10:30;;;;;;;22.90;8.48;;;;;;;;;;5058842;28;20036;-77
2022/07/21 07:12:56;;;;;;;26.73;8.82;;;;;;;;;;5056735;28;20040;-76
2022/07/21 07:15:23;;;;;;;24.63;8.93;;;;;;;;;;5061121;28;20029;-77
2022/07/21 07:17:49;;;;;;;23.85;9.18;;;;;;;;;;5061453;28;20036;-76
2022/07/21 07:20:15;;;;;;;22.05;9.18;;;;;;;;;;5059006;28;20470;-78
2022/07/21 07:22:41;;;;;;;22.55;8.50;;;;;;;;;;5059427;28;20037;-77
2022/07/21 07:25:07;;;;;;;24.38;8.35;;;;;;;;;;5058354;28;20163;-78
2022/07/21 07:27:33;;;;;;;27.13;9.80;;;;;;;;;;5071761;28;20014;-80
2022/07/21 07:29:59;;;;;;;30.38;10.38;;;;;;;;;;5052194;28;20040;-77
2022/07/21 07:32:25;;;;;;;35.85;11.50;;;;;;;;;;5068194;28;20060;-79
2022/07/21 07:34:51;;;;;;;29.98;10.13;;;;;;;;;;5059670;28;20071;-77
2022/07/21 07:37:17;;;;;;;31.42;11.65;;;;;;;;;;5058465;28;20021;-78
2022/07/21 07:39:43;;;;;;;34.20;11.90;;;;;;;;;;5060196;28;20021;-78
2022/07/21 07:42:09;;;;;;;25.00;11.20;;;;;;;;;;5061432;28;20036;-76
2022/07/21 07:44:35;;;;;;;38.67;15.32;;;;;;;;;;5055200;28;20021;-77
2022/07/21 07:47:01;;;;;;;32.58;12.27;;;;;;;;;;5059961;28;20036;-76
2022/07/21 07:49:28;;;;;;;38.65;11.73;;;;;;;;;;5044266;28;20029;-75
2022/07/21 07:51:54;;;;;;;35.00;12.43;;;;;;;;;;5067560;28;20013;-78
2022/07/21 07:54:20;;;;;;;35.75;12.73;;;;;;;;;;5068242;28;20025;-77
2022/07/21 07:56:46;;;;;;;29.38;12.45;;;;;;;;;;5071405;28;20040;-78
2022/07/21 07:59:12;;;;;;;31.10;11.90;;;;;;;;;;5063978;28;20025;-77
2022/07/21 08:01:38;;;;;;;33.30;12.88;;;;;;;;;;5060301;28;20525;-79
2022/07/21 08:04:04;;;;;;;32.10;13.18;;;;;;;;;;5062624;28;20025;-80
2022/07/21 08:06:30;;;;;;;39.67;14.82;;;;;;;;;;5062588;28;20081;-78
2022/07/21 08:08:56;;;;;;;33.28;14.07;;;;;;;;;;5045137;28;20466;-79
2022/07/21 08:11:22;;;;;;;39.63;15.45;;;;;;;;;;5063423;28;20033;-76
2022/07/21 08:13:48;;;;;;;41.28;15.13;;;;;;;;;;5064214;28;20036;-78
2022/07/21 08:16:15;;;;;;;38.20;15.02;;;;;;;;;;5062705;28;20021;-77
2022/07/21 08:18:41;;;;;;;37.72;15.73;;;;;;;;;;5064104;28;20028;-80
2022/07/21 08:21:07;;;;;;;35.05;15.20;;;;;;;;;;5046920;28;20032;-78
2022/07/21 08:23:33;;;;;;;32.28;15.20;;;;;;;;;;5063425;28;20536;-79
2022/07/21 08:25:59;;;;;;;39.25;19.10;;;;;;;;;;5061762;28;20021;-79
2022/07/21 08:28:25;;;;;;;37.25;16.80;;;;;;;;;;5065943;28;20051;-77
2022/07/21 08:30:51;;;;;;;33.47;16.75;;;;;;;;;;5070503;28;20025;-77
2022/07/21 08:33:17;;;;;;;38.75;18.95;;;;;;;;;;5072074;28;20080;-79
2022/07/21 08:35:43;;;;;;;37.03;17.75;;;;;;;;;;5070414;28;20033;-84
2022/07/21 08:38:11;;;;;;;37.15;16.48;;;;;;;;;;5054334;28;20025;-78
2022/07/21 08:40:38;;;;;;;36.63;17.00;;;;;;;;;;5063079;28;20021;-77
2022/07/21 08:43:06;;;;;;;36.38;15.57;;;;;;;;;;5069323;28;20044;-77
2022/07/21 08:45:32;;;;;;;32.67;16.05;;;;;;;;;;5062767;28;20052;-78
2022/07/21 08:47:59;;;;;;;42.30;16.77;;;;;;;;;;5059165;28;20060;-78
2022/07/21 08:50:26;;;;;;;32.50;15.77;;;;;;;;;;5061568;28;20031;-78
2022/07/21 08:52:53;;;;;;;34.85;17.83;;;;;;;;;;5058433;28;20036;-79
2022/07/21 08:55:19;;;;;;;36.00;17.85;;;;;;;;;;5057267;28;20036;-76
2022/07/21 08:57:44;;;;;;;33.20;16.85;;;;;;;;;;5056467;28;20478;-77
2022/07/21 09:00:11;;;;;;;35.30;17.77;;;;;;;;;;5057954;28;20082;-78
2022/07/21 09:02:37;;;;;;;30.70;16.92;;;;;;;;;;5058673;28;20055;-78
2022/07/21 09:05:05;;;;;;;45.92;19.30;;;;;;;;;;5057257;28;20025;-74
2022/07/21 09:07:47;;;;;;;41.67;20.70;;;;;;;;;;5037673;28;20028;-75
2022/07/21 09:10:13;;;;;;;46.55;21.63;;;;;;;;;;5056808;28;20074;-78
2022/07/21 09:12:52;;;;;;;39.10;20.35;;;;;;;;;;5058467;28;20040;-77
2022/07/21 09:15:19;;;;;;;40.20;22.73;;;;;;;;;;5058994;28;20028;-77
2022/07/21 09:17:45;;;;;;;35.20;20.02;;;;;;;;;;5059674;28;20021;-78
2022/07/21 09:20:25;;;;;;;42.97;22.77;;;;;;;;;;5058274;28;20036;-78
2022/07/21 09:23:03;;;;;;;43.45;19.08;;;;;;;;;;5064524;28;20028;-77
2022/07/21 09:25:36;;;;;;;38.20;17.33;;;;;;;;;;5061543;28;20113;-74
2022/07/21 09:28:12;;;;;;;41.30;17.85;;;;;;;;;;5065905;28;20029;-75
2022/07/21 09:30:56;;;;;;;33.88;17.23;;;;;;;;;;5058518;28;20027;-79
2022/07/21 09:33:27;;;;;;;31.25;18.35;;;;;;;;;;5057930;28;20049;-77
2022/07/21 09:36:18;;;;;;;34.17;17.05;;;25.90;60.40;;;;;;5057848;28;20029;-77
2022/07/21 09:38:54;;;;;;;26.88;14.55;;;24.00;99.90;;;;;;5057760;28;20469;-76
2022/07/21 09:41:22;;;;;;;25.85;16.48;;;23.60;99.90;;;;;;5070671;28;20052;-77
2022/07/21 09:43:53;;;;;;;33.05;17.20;;;23.60;99.90;;;;;;5070329;28;20017;-75
2022/07/21 09:46:28;;;;;;;34.95;17.58;;;;;;;;;;5063923;28;20439;-75
2022/07/21 09:48:56;;;;;;;35.58;16.73;;;;;;;;;;5060839;28;20078;-77
2022/07/21 09:51:32;;;;;;;26.20;15.82;;;;;;;;;;5059880;28;20047;-78
2022/07/21 09:54:06;;;;;;;26.65;15.30;;;;;;;;;;5060815;28;20021;-79
2022/07/21 09:56:41;;;;;;;31.40;17.00;;;;;;;;;;5057259;28;20029;-75
2022/07/21 09:59:09;;;;;;;27.05;14.75;;;;;;;;;;5059930;28;20260;-78
2022/07/21 10:01:36;;;;;;;32.35;15.18;;;;;;;;;;5058981;28;20021;-78
2022/07/21 10:04:02;;;;;;;30.15;15.27;;;;;;;;;;5058765;28;20486;-77
2022/07/21 10:06:32;;;;;;;38.50;17.90;;;;;;;;;;5041965;28;20498;-77
2022/07/21 10:08:59;;;;;;;34.63;18.63;;;;;;;;;;5067107;28;20088;-76
2022/07/21 10:11:26;;;;;;;29.23;16.38;;;;;;;;;;5060771;28;20052;-77
2022/07/21 10:13:52;;;;;;;29.55;17.73;;;;;;;;;;5059873;28;20045;-77
2022/07/21 10:16:18;;;;;;;31.75;16.73;;;;;;;;;;5062570;28;20036;-77
2022/07/21 10:19:07;;;;;;;33.28;18.35;;;;;;;;;;5064748;28;20054;-78
2022/07/21 10:21:52;;;;;;;29.65;15.98;;;;;;;;;;5063251;28;20040;-78
2022/07/21 10:24:19;;;;;;;24.45;14.73;;;;;;;;;;5061220;28;20347;-78
2022/07/21 10:27:04;;;;;;;30.30;15.55;;;;;;;;;;5060910;28;20029;-78
2022/07/21 10:29:48;;;;;;;28.95;15.27;;;;;;;;;;5067150;28;20032;-78
2022/07/21 10:32:19;;;;;;;22.58;13.95;;;;;;;;;;5055078;28;20032;-78
2022/07/21 10:34:45;;;;;;;26.90;15.45;;;;;;;;;;5050719;28;20120;-78
2022/07/21 10:37:31;;;;;;;25.85;15.02;;;;;;;;;;5067121;28;20077;-77
2022/07/21 10:39:57;;;;;;;25.27;13.75;;;;;;;;;;5070487;28;20071;-78
2022/07/21 10:42:23;;;;;;;22.02;13.18;;;;;;;;;;5068798;28;20029;-78
2022/07/21 10:44:49;;;;;;;24.13;14.35;;;;;;;;;;5068946;28;20028;-78
2022/07/21 10:47:23;;;;;;;25.88;14.57;;;;;;;;;;5071327;28;20047;-79
2022/07/21 10:49:49;;;;;;;25.42;14.93;;;;;;;;;;5069597;28;20401;-77
2022/07/21 10:52:34;;;;;;;26.50;12.73;;;;;;;;;;5043883;28;20192;-79
2022/07/21 10:55:26;;;;;;;21.38;13.50;;;;;;;;;;5041489;28;20038;-76
2022/07/21 10:58:12;;;;;;;21.67;12.13;;;;;;;;;;5055705;28;20559;-78
2022/07/21 11:00:38;;;;;;;21.30;12.10;;;;;;;;;;5058580;28;20067;-76
2022/07/21 11:03:13;;;;;;;21.67;12.30;;;;;;;;;;5057031;28;20437;-78
2022/07/21 11:05:59;;;;;;;16.83;10.73;;;;;;;;;;5057799;28;20085;-78
2022/07/21 11:08:30;;;;;;;16.67;10.80;;;;;;;;;;5057731;28;20033;-78
2022/07/21 11:11:07;;;;;;;15.95;9.85;;;;;;;;;;5056780;28;20051;-77
2022/07/21 11:13:53;;;;;;;20.95;10.63;;;;;;;;;;5055989;28;20025;-78
2022/07/21 11:16:19;;;;;;;13.05;9.25;;;;;;;;;;5057778;28;20037;-79
2022/07/21 11:18:45;;;;;;;15.98;10.75;;;;;;;;;;5058711;28;20379;-79
2022/07/21 11:21:13;;;;;;;16.33;8.60;;;;;;;;;;5057537;28;20052;-78
2022/07/21 11:23:39;;;;;;;10.90;7.07;;;;;;;;;;5057602;28;20021;-79
2022/07/21 11:26:05;;;;;;;11.98;6.75;;;;;;;;;;5055263;28;20116;-80
2022/07/21 11:28:31;;;;;;;12.82;7.00;;;;;;;;;;5060836;28;20029;-80
2022/07/21 11:31:10;;;;;;;12.65;6.50;;;;;;;;;;5057999;28;20308;-79
2022/07/21 11:33:38;;;;;;;9.85;5.10;;;;;;;;;;5072250;28;20029;-78
2022/07/21 11:36:04;;;;;;;8.75;5.93;;;;;;;;;;5073064;28;20093;-78
2022/07/21 11:38:31;;;;;;;9.07;5.30;;;;;;;;;;5063262;28;20025;-78
2022/07/21 11:41:13;;;;;;;11.32;5.55;;;;;;;;;;5054652;28;20067;-77
2022/07/21 11:43:42;;;;;;;7.63;4.90;;;;;;;;;;5061602;28;20021;-77
2022/07/21 11:46:08;;;;;;;5.43;4.15;;;;;;;;;;5058978;28;20021;-78
2022/07/21 11:48:34;;;;;;;7.25;4.22;;;;;;;;;;5057354;28;20378;-77
2022/07/21 11:51:02;;;;;;;6.53;4.07;;;;;;;;;;5039534;28;20112;-77
2022/07/21 11:53:28;;;;;;;8.27;3.90;;;;;;;;;;5035219;28;20044;-76
2022/07/21 11:55:54;;;;;;;6.78;3.90;;;;;;;;;;5056375;28;20029;-77
2022/07/21 11:58:20;;;;;;;6.10;3.17;;;;;;;;;;5037095;28;20098;-77
2022/07/21 12:00:46;;;;;;;6.03;3.70;;;;;;;;;;5052883;28;20025;-77
2022/07/21 12:03:13;;;;;;;4.22;3.63;;;;;;;;;;5034689;28;20025;-77
2022/07/21 12:05:40;;;;;;;7.72;4.25;;;;;;;;;;5053161;28;20021;-78
2022/07/21 12:08:06;;;;;;;7.32;4.28;;;;;;;;;;5055602;28;20025;-78
2022/07/21 12:10:33;;;;;;;5.68;3.70;;;;;;;;;;5054292;28;20025;-77
2022/07/21 12:13:00;;;;;;;9.27;3.90;;;;;;;;;;5034958;28;20470;-77
2022/07/21 12:15:28;;;;;;;5.25;3.63;;;;;;;;;;5053288;28;20087;-77
2022/07/21 12:17:57;;;;;;;6.50;3.90;;;;;;;;;;5053377;28;20025;-75
2022/07/21 12:20:25;;;;;;;6.07;3.90;;;;;;;;;;5051472;28;20033;-75
2022/07/21 12:22:51;;;;;;;5.15;3.80;;;;;;;;;;5053812;28;20029;-82
2022/07/21 12:25:18;;;;;;;7.50;3.90;;;;;;;;;;5055229;28;20043;-73
2022/07/21 12:27:46;;;;;;;6.57;4.00;;;;;;;;;;5055231;28;20026;-75
2022/07/21 12:30:29;;;;;;;7.47;4.15;;;;;;;;;;5055427;28;20028;-77
2022/07/21 12:33:06;;;;;;;7.47;4.17;;;;;;;;;;5057383;28;20075;-75
2022/07/21 12:35:32;;;;;;;5.38;3.70;;;;;;;;;;5058347;28;20024;-75
2022/07/21 12:38:06;;;;;;;5.28;3.60;;;;;;;;;;5058512;28;20484;-74
2022/07/21 12:40:33;;;;;;;6.78;4.05;;;;;;;;;;5057311;28;20029;-76
2022/07/21 12:43:05;;;;;;;6.13;3.90;;;;;;;;;;5059631;28;20029;-76
2022/07/21 12:45:31;;;;;;;7.80;4.80;;;;;;;;;;5058392;28;20083;-73
2022/07/21 12:48:10;;;;;;;4.80;3.90;;;;;;;;;;5055916;28;20048;-77
2022/07/21 12:50:39;;;;;;;7.22;4.35;;;;;;;;;;5037896;28;20021;-75
2022/07/21 12:53:05;;;;;;;5.53;3.92;;;;;;;;;;5054945;28;20024;-75
2022/07/21 12:55:32;;;;;;;6.95;4.20;;;;;;;;;;5037249;28;20106;-76
2022/07/21 12:57:57;;;;;;;7.63;4.43;;;;;;;;;;5055424;28;20036;-77
2022/07/21 13:00:23;;;;;;;9.60;4.97;;;;;;;;;;5060629;28;20103;-76
2022/07/21 13:02:51;;;;;;;6.80;3.92;;;;;;;;;;5056459;28;20431;-74
2022/07/21 13:05:17;;;;;;;6.72;3.50;;;;;;;;;;5052638;28;20024;-75
2022/07/21 13:07:43;;;;;;;4.97;2.90;;;;;;;;;;5057100;28;20435;-75
2022/07/21 13:10:09;;;;;;;4.20;3.30;;;;;;;;;;5056788;28;20048;-74
2022/07/21 13:12:35;;;;;;;5.55;3.03;;;;;;;;;;5054724;28;20033;-75
2022/07/21 13:15:01;;;;;;;6.32;2.90;;;;;;;;;;5036675;28;20025;-77
2022/07/21 13:17:27;;;;;;;6.50;2.78;;;;;;;;;;5057684;28;20033;-77
2022/07/21 13:19:54;;;;;;;6.47;3.50;;;;;;;;;;5037703;28;20033;-77
2022/07/21 13:22:19;;;;;;;4.80;3.00;;;;;;;;;;5054616;28;20029;-77
2022/07/21 13:24:45;;;;;;;6.85;3.30;;;;;;;;;;5054446;28;20032;-77
2022/07/21 13:27:11;;;;;;;7.90;3.10;;;;;;;;;;5054282;28;20083;-74
2022/07/21 13:29:37;;;;;;;5.18;3.25;;;;;;;;;;5036411;28;20040;-75
2022/07/21 13:32:03;;;;;;;8.18;3.10;;;;;;;;;;5053550;28;20032;-77
2022/07/21 13:34:29;;;;;;;6.22;3.30;;;;;;;;;;5053991;28;20106;-75
2022/07/21 13:36:55;;;;;;;6.13;3.17;;;;;;;;;;5054250;28;20486;-74
2022/07/21 13:39:26;;;;;;;7.03;3.28;;;;;;;;;;5054262;28;20031;-76
2022/07/21 13:41:52;;;;;;;9.50;3.72;;;;;;;;;;5053902;28;20067;-74
2022/07/21 13:44:18;;;;;;;7.32;3.47;;;;;;;;;;5053726;28;20024;-74
2022/07/21 13:46:44;;;;;;;5.20;3.50;;;;;;;;;;5055423;28;20371;-74
2022/07/21 13:49:10;;;;;;;6.63;4.18;;;;;;;;;;5055494;28;20036;-77
2022/07/21 13:51:39;;;;;;;8.73;4.38;;;;;;;;;;5054012;28;20031;-77
2022/07/21 13:54:05;;;;;;;8.43;4.22;;;;;;;;;;5036679;28;20025;-76
2022/07/21 13:56:31;;;;;;;5.03;3.53;;;;;;;;;;5052793;28;20490;-77
2022/07/21 13:58:57;;;;;;;4.78;3.20;;;;;;;;;;5054075;28;20035;-76
2022/07/21 14:01:23;;;;;;;4.78;3.13;;;;;;;;;;5053937;28;20033;-76
2022/07/21 14:03:50;;;;;;;3.97;2.40;;;;;;;;;;5051827;28;20099;-76
2022/07/21 14:06:16;;;;;;;4.63;2.70;;;;;;;;;;5052020;28;20070;-76
2022/07/21 14:08:43;;;;;;;6.80;2.60;;;;;;;;;;5053847;28;20021;-75
2022/07/21 14:11:09;;;;;;;7.13;2.97;;;;;;;;;;5053969;28;20039;-77
2022/07/21 14:13:35;;;;;;;4.30;2.80;;;;;;;;;;5054120;28;20029;-74
2022/07/21 14:16:02;;;;;;;3.20;2.65;;;;;;;;;;5053309;28;20492;-73
2022/07/21 14:18:28;;;;;;;5.03;2.72;;;;;;;;;;5035510;28;20046;-75
2022/07/21 14:20:54;;;;;;;4.00;2.60;;;;;;;;;;5053750;28;20405;-75
2022/07/21 14:23:20;;;;;;;6.85;5.18;;;;;;;;;;5053171;28;20024;-76
2022/07/21 14:25:47;;;;;;;6.30;3.30;;;;;;;;;;5053556;28;20025;-74
2022/07/21 14:28:13;;;;;;;2.47;2.28;;;;;;;;;;5053984;28;20028;-76